sensor_id;sensor_type;location;lat;lon;timestamp;P1;durP1;ratioP1;P2;durP2;ratioP2
30151;SDS011;16963;26.018;-80.216;2022-07-29T00:01:53;11.75;;;3.53;;
30151;SDS011;16963;26.018;-80.216;2022-07-29T00:04:21;16.83;;;3.93;;
30151;SDS011;16963;26.018;-80.216;2022-07-29T00:06:52;15.98;;;4.28;;
30151;SDS011;16963;26.018;-80.216;2022-07-29T00:09:21;16.70;;;4.40;;
30151;SDS011;16963;26.018;-80.216;2022-07-29T00:11:51;16.83;;;4.38;;
30151;SDS011;16963;26.018;-80.216;2022-07-29T00:15:57;17.70;;;3.93;;
30151;SDS011;16963;26.018;-80.216;2022-07-29T00:18:31;15.60;;;4.10;;
30151;SDS011;16963;26.018;-80.216;2022-07-29T00:21:01;17.45;;;4.63;;
30151;SDS011;16963;26.018;-80.216;2022-07-29T00:23:31;17.38;;;4.05;;
30151;SDS011;16963;26.018;-80.216;2022-07-29T00:26:04;17.25;;;4.13;;
30151;SDS011;16963;26.018;-80.216;2022-07-29T00:28:35;14.32;;;3.90;;
30151;SDS011;16963;26.018;-80.216;2022-07-29T00:31:04;16.52;;;3.95;;
30151;SDS011;16963;26.018;-80.216;2022-07-29T00:33:32;19.55;;;4.65;;
30151;SDS011;16963;26.018;-80.216;2022-07-29T00:37:44;16.50;;;4.55;;
30151;SDS011;16963;26.018;-80.216;2022-07-29T00:40:13;14.40;;;4.10;;
30151;SDS011;16963;26.018;-80.216;2022-07-29T00:42:45;19.55;;;4.03;;
30151;SDS011;16963;26.018;-80.216;2022-07-29T00:45:14;16.08;;;4.43;;
30151;SDS011;16963;26.018;-80.216;2022-07-29T00:47:44;15.48;;;4.45;;
30151;SDS011;16963;26.018;-80.216;2022-07-29T00:50:13;19.08;;;4.10;;
30151;SDS011;16963;26.018;-80.216;2022-07-29T00:52:42;18.50;;;4.32;;
30151;SDS011;16963;26.018;-80.216;2022-07-29T00:55:14;11.68;;;3.83;;
30151;SDS011;16963;26.018;-80.216;2022-07-29T00:59:28;18.17;;;4.30;;
30151;SDS011;16963;26.018;-80.216;2022-07-29T01:02:02;17.15;;;3.78;;
30151;SDS011;16963;26.018;-80.216;2022-07-29T01:04:34;18.80;;;3.90;;
30151;SDS011;16963;26.018;-80.216;2022-07-29T01:07:04;18.08;;;5.00;;
30151;SDS011;16963;26.018;-80.216;2022-07-29T01:09:34;19.25;;;3.67;;
30151;SDS011;16963;26.018;-80.216;2022-07-29T01:12:15;17.10;;;3.78;;
30151;SDS011;16963;26.018;-80.216;2022-07-29T01:14:46;20.20;;;3.90;;
30151;SDS011;16963;26.018;-80.216;2022-07-29T01:28:30;19.23;;;4.45;;
30151;SDS011;16963;26.018;-80.216;2022-07-29T01:31:06;19.30;;;4.50;;
30151;SDS011;16963;26.018;-80.216;2022-07-29T01:33:45;17.58;;;4.32;;
30151;SDS011;16963;26.018;-80.216;2022-07-29T01:36:43;16.25;;;4.25;;
30151;SDS011;16963;26.018;-80.216;2022-07-29T01:39:23;17.23;;;4.47;;
30151;SDS011;16963;26.018;-80.216;2022-07-29T01:44:38;16.23;;;5.03;;
30151;SDS011;16963;26.018;-80.216;2022-07-29T01:47:17;12.93;;;3.97;;
30151;SDS011;16963;26.018;-80.216;2022-07-29T01:49:51;23.85;;;4.75;;
30151;SDS011;16963;26.018;-80.216;2022-07-29T01:52:31;19.80;;;4.90;;
30151;SDS011;16963;26.018;-80.216;2022-07-29T01:55:07;19.58;;;4.20;;
30151;SDS011;16963;26.018;-80.216;2022-07-29T01:57:42;16.35;;;4.25;;
30151;SDS011;16963;26.018;-80.216;2022-07-29T02:00:16;21.00;;;5.47;;
30151;SDS011;16963;26.018;-80.216;2022-07-29T02:02:46;17.25;;;4.05;;
30151;SDS011;16963;26.018;-80.216;2022-07-29T02:05:15;18.83;;;3.67;;
30151;SDS011;16963;26.018;-80.216;2022-07-29T02:07:51;15.85;;;3.97;;
30151;SDS011;16963;26.018;-80.216;2022-07-29T02:10:26;15.60;;;4.20;;
30151;SDS011;16963;26.018;-80.216;2022-07-29T02:13:00;13.90;;;3.60;;
30151;SDS011;16963;26.018;-80.216;2022-07-29T02:15:34;13.73;;;3.60;;
30151;SDS011;16963;26.018;-80.216;2022-07-29T02:18:06;18.75;;;4.45;;
30151;SDS011;16963;26.018;-80.216;2022-07-29T02:20:36;19.35;;;4.72;;
30151;SDS011;16963;26.018;-80.216;2022-07-29T02:23:06;17.80;;;4.35;;
30151;SDS011;16963;26.018;-80.216;2022-07-29T02:25:37;16.20;;;4.25;;
30151;SDS011;16963;26.018;-80.216;2022-07-29T02:30:04;16.67;;;4.47;;
30151;SDS011;16963;26.018;-80.216;2022-07-29T02:32:35;19.48;;;4.00;;
30151;SDS011;16963;26.018;-80.216;2022-07-29T02:35:06;13.95;;;3.65;;
30151;SDS011;16963;26.018;-80.216;2022-07-29T02:40:07;13.75;;;3.88;;
30151;SDS011;16963;26.018;-80.216;2022-07-29T02:42:38;12.35;;;4.00;;
30151;SDS011;16963;26.018;-80.216;2022-07-29T02:45:10;18.10;;;3.85;;
30151;SDS011;16963;26.018;-80.216;2022-07-29T02:47:41;14.90;;;3.90;;
30151;SDS011;16963;26.018;-80.216;2022-07-29T02:53:00;14.52;;;3.75;;
30151;SDS011;16963;26.018;-80.216;2022-07-29T02:55:58;15.68;;;3.88;;
30151;SDS011;16963;26.018;-80.216;2022-07-29T02:58:42;13.85;;;3.38;;
30151;SDS011;16963;26.018;-80.216;2022-07-29T03:01:16;16.95;;;3.60;;
30151;SDS011;16963;26.018;-80.216;2022-07-29T03:03:57;11.88;;;3.22;;
30151;SDS011;16963;26.018;-80.216;2022-07-29T03:06:32;14.90;;;3.97;;
30151;SDS011;16963;26.018;-80.216;2022-07-29T03:09:06;14.60;;;3.78;;
30151;SDS011;16963;26.018;-80.216;2022-07-29T03:11:40;14.77;;;4.15;;
30151;SDS011;16963;26.018;-80.216;2022-07-29T03:16:34;18.27;;;4.18;;
30151;SDS011;16963;26.018;-80.216;2022-07-29T03:19:07;11.57;;;3.70;;
30151;SDS011;16963;26.018;-80.216;2022-07-29T03:21:35;14.98;;;3.40;;
30151;SDS011;16963;26.018;-80.216;2022-07-29T03:24:02;13.43;;;3.65;;
30151;SDS011;16963;26.018;-80.216;2022-07-29T03:26:36;10.43;;;3.03;;
30151;SDS011;16963;26.018;-80.216;2022-07-29T03:29:05;14.43;;;3.47;;
30151;SDS011;16963;26.018;-80.216;2022-07-29T03:31:34;14.15;;;3.63;;
30151;SDS011;16963;26.018;-80.216;2022-07-29T03:34:04;15.38;;;3.35;;
30151;SDS011;16963;26.018;-80.216;2022-07-29T03:36:31;22.25;;;4.03;;
30151;SDS011;16963;26.018;-80.216;2022-07-29T03:39:19;18.17;;;3.85;;
30151;SDS011;16963;26.018;-80.216;2022-07-29T03:41:52;11.63;;;3.40;;
30151;SDS011;16963;26.018;-80.216;2022-07-29T03:44:22;13.65;;;3.38;;
30151;SDS011;16963;26.018;-80.216;2022-07-29T03:46:55;9.10;;;3.00;;
30151;SDS011;16963;26.018;-80.216;2022-07-29T03:49:28;15.18;;;3.60;;
30151;SDS011;16963;26.018;-80.216;2022-07-29T03:51:57;13.75;;;3.50;;
30151;SDS011;16963;26.018;-80.216;2022-07-29T03:54:25;14.68;;;3.38;;
30151;SDS011;16963;26.018;-80.216;2022-07-29T03:57:05;13.50;;;3.95;;
30151;SDS011;16963;26.018;-80.216;2022-07-29T03:59:35;15.37;;;3.33;;
30151;SDS011;16963;26.018;-80.216;2022-07-29T04:02:05;16.40;;;3.17;;
30151;SDS011;16963;26.018;-80.216;2022-07-29T04:04:40;14.70;;;3.42;;
30151;SDS011;16963;26.018;-80.216;2022-07-29T04:07:08;13.35;;;3.55;;
30151;SDS011;16963;26.018;-80.216;2022-07-29T04:09:47;14.80;;;3.05;;
30151;SDS011;16963;26.018;-80.216;2022-07-29T04:12:15;14.88;;;3.97;;
30151;SDS011;16963;26.018;-80.216;2022-07-29T04:14:42;9.07;;;3.03;;
30151;SDS011;16963;26.018;-80.216;2022-07-29T04:18:57;13.60;;;3.53;;
30151;SDS011;16963;26.018;-80.216;2022-07-29T04:21:24;15.20;;;3.67;;
30151;SDS011;16963;26.018;-80.216;2022-07-29T04:23:52;15.82;;;3.50;;
30151;SDS011;16963;26.018;-80.216;2022-07-29T04:26:21;11.80;;;3.00;;
30151;SDS011;16963;26.018;-80.216;2022-07-29T04:28:55;18.33;;;4.10;;
30151;SDS011;16963;26.018;-80.216;2022-07-29T04:31:22;10.38;;;3.20;;
30151;SDS011;16963;26.018;-80.216;2022-07-29T04:33:55;9.55;;;2.88;;
30151;SDS011;16963;26.018;-80.216;2022-07-29T04:36:22;16.35;;;2.80;;
30151;SDS011;16963;26.018;-80.216;2022-07-29T04:38:51;13.05;;;3.33;;
30151;SDS011;16963;26.018;-80.216;2022-07-29T04:41:28;10.70;;;2.55;;
30151;SDS011;16963;26.018;-80.216;2022-07-29T04:44:00;12.98;;;2.58;;
30151;SDS011;16963;26.018;-80.216;2022-07-29T04:46:40;11.50;;;2.77;;
30151;SDS011;16963;26.018;-80.216;2022-07-29T04:49:07;10.48;;;2.35;;
30151;SDS011;16963;26.018;-80.216;2022-07-29T04:51:35;10.90;;;2.67;;
30151;SDS011;16963;26.018;-80.216;2022-07-29T04:54:02;12.85;;;2.42;;
30151;SDS011;16963;26.018;-80.216;2022-07-29T04:59:02;11.82;;;2.45;;
30151;SDS011;16963;26.018;-80.216;2022-07-29T05:02:49;13.88;;;2.78;;
30151;SDS011;16963;26.018;-80.216;2022-07-29T05:05:17;13.93;;;2.90;;
30151;SDS011;16963;26.018;-80.216;2022-07-29T05:07:45;9.25;;;2.38;;
30151;SDS011;16963;26.018;-80.216;2022-07-29T05:10:14;9.88;;;2.47;;
30151;SDS011;16963;26.018;-80.216;2022-07-29T05:12:42;8.93;;;2.60;;
30151;SDS011;16963;26.018;-80.216;2022-07-29T05:15:15;13.30;;;3.15;;
30151;SDS011;16963;26.018;-80.216;2022-07-29T05:20:12;9.75;;;2.63;;
30151;SDS011;16963;26.018;-80.216;2022-07-29T05:24:35;8.88;;;2.47;;
30151;SDS011;16963;26.018;-80.216;2022-07-29T05:27:02;10.73;;;2.50;;
30151;SDS011;16963;26.018;-80.216;2022-07-29T05:29:35;8.07;;;2.00;;
30151;SDS011;16963;26.018;-80.216;2022-07-29T05:32:15;8.80;;;2.55;;
30151;SDS011;16963;26.018;-80.216;2022-07-29T05:34:42;9.53;;;2.20;;
30151;SDS011;16963;26.018;-80.216;2022-07-29T05:37:16;10.20;;;2.75;;
30151;SDS011;16963;26.018;-80.216;2022-07-29T05:39:45;10.10;;;2.45;;
30151;SDS011;16963;26.018;-80.216;2022-07-29T05:42:16;9.45;;;2.63;;
30151;SDS011;16963;26.018;-80.216;2022-07-29T05:47:15;9.68;;;2.30;;
30151;SDS011;16963;26.018;-80.216;2022-07-29T05:49:42;14.15;;;2.30;;
30151;SDS011;16963;26.018;-80.216;2022-07-29T05:52:15;9.52;;;2.90;;
30151;SDS011;16963;26.018;-80.216;2022-07-29T05:54:43;8.57;;;2.35;;
30151;SDS011;16963;26.018;-80.216;2022-07-29T05:57:22;11.23;;;2.60;;
30151;SDS011;16963;26.018;-80.216;2022-07-29T06:02:21;10.50;;;2.35;;
30151;SDS011;16963;26.018;-80.216;2022-07-29T06:05:07;9.57;;;3.25;;
30151;SDS011;16963;26.018;-80.216;2022-07-29T06:07:43;9.52;;;2.40;;
30151;SDS011;16963;26.018;-80.216;2022-07-29T06:10:17;8.25;;;2.53;;
30151;SDS011;16963;26.018;-80.216;2022-07-29T06:12:50;8.43;;;2.53;;
30151;SDS011;16963;26.018;-80.216;2022-07-29T06:15:18;9.95;;;2.25;;
30151;SDS011;16963;26.018;-80.216;2022-07-29T06:17:46;10.60;;;2.25;;
30151;SDS011;16963;26.018;-80.216;2022-07-29T06:20:28;8.98;;;2.30;;
30151;SDS011;16963;26.018;-80.216;2022-07-29T06:22:58;9.52;;;2.63;;
30151;SDS011;16963;26.018;-80.216;2022-07-29T06:27:35;8.73;;;2.67;;
30151;SDS011;16963;26.018;-80.216;2022-07-29T06:30:03;11.77;;;2.78;;
30151;SDS011;16963;26.018;-80.216;2022-07-29T06:32:37;8.10;;;2.80;;
30151;SDS011;16963;26.018;-80.216;2022-07-29T06:35:10;13.52;;;2.65;;
30151;SDS011;16963;26.018;-80.216;2022-07-29T06:37:57;9.98;;;2.08;;
30151;SDS011;16963;26.018;-80.216;2022-07-29T06:40:25;11.25;;;2.40;;
30151;SDS011;16963;26.018;-80.216;2022-07-29T06:43:15;9.77;;;2.30;;
30151;SDS011;16963;26.018;-80.216;2022-07-29T06:45:42;10.52;;;2.30;;
30151;SDS011;16963;26.018;-80.216;2022-07-29T06:50:43;9.60;;;2.67;;
30151;SDS011;16963;26.018;-80.216;2022-07-29T06:53:12;12.50;;;2.40;;
30151;SDS011;16963;26.018;-80.216;2022-07-29T06:55:42;12.00;;;2.15;;
30151;SDS011;16963;26.018;-80.216;2022-07-29T06:58:11;8.15;;;1.80;;
30151;SDS011;16963;26.018;-80.216;2022-07-29T07:00:41;8.48;;;1.95;;
30151;SDS011;16963;26.018;-80.216;2022-07-29T07:03:11;14.73;;;2.30;;
30151;SDS011;16963;26.018;-80.216;2022-07-29T07:05:40;10.25;;;2.78;;
30151;SDS011;16963;26.018;-80.216;2022-07-29T07:08:08;9.50;;;2.47;;
30151;SDS011;16963;26.018;-80.216;2022-07-29T07:13:07;8.02;;;1.73;;
30151;SDS011;16963;26.018;-80.216;2022-07-29T07:15:35;9.40;;;2.13;;
30151;SDS011;16963;26.018;-80.216;2022-07-29T07:18:07;8.18;;;1.90;;
30151;SDS011;16963;26.018;-80.216;2022-07-29T07:20:35;10.70;;;1.88;;
30151;SDS011;16963;26.018;-80.216;2022-07-29T07:23:03;8.13;;;2.08;;
30151;SDS011;16963;26.018;-80.216;2022-07-29T07:25:33;5.85;;;2.00;;
30151;SDS011;16963;26.018;-80.216;2022-07-29T07:28:05;8.23;;;1.88;;
30151;SDS011;16963;26.018;-80.216;2022-07-29T07:30:33;6.82;;;2.10;;
30151;SDS011;16963;26.018;-80.216;2022-07-29T07:33:25;9.25;;;1.88;;
30151;SDS011;16963;26.018;-80.216;2022-07-29T07:35:52;6.65;;;2.00;;
30151;SDS011;16963;26.018;-80.216;2022-07-29T07:38:22;5.93;;;1.80;;
30151;SDS011;16963;26.018;-80.216;2022-07-29T07:40:51;8.77;;;1.80;;
30151;SDS011;16963;26.018;-80.216;2022-07-29T07:43:20;9.82;;;2.00;;
30151;SDS011;16963;26.018;-80.216;2022-07-29T07:45:50;8.32;;;1.70;;
30151;SDS011;16963;26.018;-80.216;2022-07-29T07:48:18;6.97;;;1.80;;
30151;SDS011;16963;26.018;-80.216;2022-07-29T07:50:48;7.05;;;1.92;;
30151;SDS011;16963;26.018;-80.216;2022-07-29T07:53:31;6.10;;;1.55;;
30151;SDS011;16963;26.018;-80.216;2022-07-29T07:56:00;7.05;;;2.13;;
30151;SDS011;16963;26.018;-80.216;2022-07-29T07:58:38;7.45;;;1.95;;
30151;SDS011;16963;26.018;-80.216;2022-07-29T08:01:06;7.00;;;1.70;;
30151;SDS011;16963;26.018;-80.216;2022-07-29T08:03:35;6.05;;;1.90;;
30151;SDS011;16963;26.018;-80.216;2022-07-29T08:06:03;7.13;;;1.95;;
30151;SDS011;16963;26.018;-80.216;2022-07-29T08:08:35;8.30;;;2.20;;
30151;SDS011;16963;26.018;-80.216;2022-07-29T08:11:03;7.07;;;2.35;;
30151;SDS011;16963;26.018;-80.216;2022-07-29T08:15:19;8.98;;;2.22;;
30151;SDS011;16963;26.018;-80.216;2022-07-29T08:17:50;9.48;;;2.78;;
30151;SDS011;16963;26.018;-80.216;2022-07-29T08:20:17;8.40;;;2.45;;
30151;SDS011;16963;26.018;-80.216;2022-07-29T08:22:45;8.65;;;2.17;;
30151;SDS011;16963;26.018;-80.216;2022-07-29T08:25:13;10.57;;;2.47;;
30151;SDS011;16963;26.018;-80.216;2022-07-29T08:27:45;9.15;;;2.20;;
30151;SDS011;16963;26.018;-80.216;2022-07-29T08:30:15;11.63;;;2.53;;
30151;SDS011;16963;26.018;-80.216;2022-07-29T08:32:43;7.33;;;2.30;;
30151;SDS011;16963;26.018;-80.216;2022-07-29T08:35:55;6.57;;;2.45;;
30151;SDS011;16963;26.018;-80.216;2022-07-29T08:38:23;9.18;;;2.00;;
30151;SDS011;16963;26.018;-80.216;2022-07-29T08:40:55;11.23;;;3.10;;
30151;SDS011;16963;26.018;-80.216;2022-07-29T08:43:23;9.63;;;2.40;;
30151;SDS011;16963;26.018;-80.216;2022-07-29T08:45:53;5.88;;;1.65;;
30151;SDS011;16963;26.018;-80.216;2022-07-29T08:48:23;8.88;;;2.30;;
30151;SDS011;16963;26.018;-80.216;2022-07-29T08:50:55;7.72;;;1.90;;
30151;SDS011;16963;26.018;-80.216;2022-07-29T08:56:07;6.22;;;1.75;;
30151;SDS011;16963;26.018;-80.216;2022-07-29T08:58:42;8.43;;;1.85;;
30151;SDS011;16963;26.018;-80.216;2022-07-29T09:01:21;8.02;;;1.88;;
30151;SDS011;16963;26.018;-80.216;2022-07-29T09:04:03;8.45;;;2.03;;
30151;SDS011;16963;26.018;-80.216;2022-07-29T09:06:37;7.45;;;2.10;;
30151;SDS011;16963;26.018;-80.216;2022-07-29T09:09:10;9.80;;;1.80;;
30151;SDS011;16963;26.018;-80.216;2022-07-29T09:11:38;5.97;;;1.65;;
30151;SDS011;16963;26.018;-80.216;2022-07-29T09:14:18;10.27;;;2.13;;
30151;SDS011;16963;26.018;-80.216;2022-07-29T09:16:57;9.20;;;2.10;;
30151;SDS011;16963;26.018;-80.216;2022-07-29T09:21:56;6.45;;;1.77;;
30151;SDS011;16963;26.018;-80.216;2022-07-29T09:24:36;7.45;;;2.13;;
30151;SDS011;16963;26.018;-80.216;2022-07-29T09:27:07;7.85;;;1.77;;
30151;SDS011;16963;26.018;-80.216;2022-07-29T09:29:46;7.50;;;1.60;;
30151;SDS011;16963;26.018;-80.216;2022-07-29T09:32:23;6.70;;;1.50;;
30151;SDS011;16963;26.018;-80.216;2022-07-29T09:35:20;8.27;;;1.63;;
30151;SDS011;16963;26.018;-80.216;2022-07-29T09:37:52;5.32;;;1.55;;
30151;SDS011;16963;26.018;-80.216;2022-07-29T09:40:22;7.50;;;1.92;;
30151;SDS011;16963;26.018;-80.216;2022-07-29T09:42:53;7.95;;;1.80;;
30151;SDS011;16963;26.018;-80.216;2022-07-29T09:45:30;5.10;;;2.08;;
30151;SDS011;16963;26.018;-80.216;2022-07-29T09:48:17;7.45;;;1.90;;
30151;SDS011;16963;26.018;-80.216;2022-07-29T09:50:51;8.18;;;1.85;;
30151;SDS011;16963;26.018;-80.216;2022-07-29T09:53:31;7.35;;;2.08;;
30151;SDS011;16963;26.018;-80.216;2022-07-29T09:58:39;8.48;;;1.80;;
30151;SDS011;16963;26.018;-80.216;2022-07-29T10:01:06;5.97;;;1.50;;
30151;SDS011;16963;26.018;-80.216;2022-07-29T10:03:51;7.43;;;2.00;;
30151;SDS011;16963;26.018;-80.216;2022-07-29T10:06:23;5.05;;;1.70;;
30151;SDS011;16963;26.018;-80.216;2022-07-29T10:09:06;8.88;;;1.98;;
30151;SDS011;16963;26.018;-80.216;2022-07-29T10:11:37;8.20;;;2.00;;
30151;SDS011;16963;26.018;-80.216;2022-07-29T10:14:16;9.02;;;2.20;;
30151;SDS011;16963;26.018;-80.216;2022-07-29T10:16:43;10.23;;;2.05;;
30151;SDS011;16963;26.018;-80.216;2022-07-29T10:19:32;8.45;;;2.25;;
30151;SDS011;16963;26.018;-80.216;2022-07-29T10:24:38;7.43;;;1.92;;
30151;SDS011;16963;26.018;-80.216;2022-07-29T10:27:09;9.00;;;2.10;;
30151;SDS011;16963;26.018;-80.216;2022-07-29T10:29:37;6.25;;;2.03;;
30151;SDS011;16963;26.018;-80.216;2022-07-29T10:32:17;5.97;;;2.45;;
30151;SDS011;16963;26.018;-80.216;2022-07-29T10:38:04;6.97;;;1.88;;
30151;SDS011;16963;26.018;-80.216;2022-07-29T10:43:42;12.35;;;2.42;;
30151;SDS011;16963;26.018;-80.216;2022-07-29T10:46:26;7.70;;;2.40;;
30151;SDS011;16963;26.018;-80.216;2022-07-29T10:51:53;6.95;;;2.30;;
30151;SDS011;16963;26.018;-80.216;2022-07-29T10:57:27;10.00;;;2.17;;
30151;SDS011;16963;26.018;-80.216;2022-07-29T11:02:56;7.65;;;2.05;;
30151;SDS011;16963;26.018;-80.216;2022-07-29T11:11:30;6.25;;;2.58;;
30151;SDS011;16963;26.018;-80.216;2022-07-29T11:13:56;10.02;;;2.30;;
30151;SDS011;16963;26.018;-80.216;2022-07-29T11:16:26;6.55;;;2.65;;
30151;SDS011;16963;26.018;-80.216;2022-07-29T11:19:34;8.03;;;2.97;;
30151;SDS011;16963;26.018;-80.216;2022-07-29T11:22:09;10.15;;;2.25;;
30151;SDS011;16963;26.018;-80.216;2022-07-29T11:24:42;7.90;;;2.20;;
30151;SDS011;16963;26.018;-80.216;2022-07-29T11:29:00;9.25;;;2.67;;
30151;SDS011;16963;26.018;-80.216;2022-07-29T11:31:44;10.05;;;2.78;;
30151;SDS011;16963;26.018;-80.216;2022-07-29T11:34:23;11.85;;;2.63;;
30151;SDS011;16963;26.018;-80.216;2022-07-29T11:39:47;9.20;;;1.92;;
30151;SDS011;16963;26.018;-80.216;2022-07-29T11:50:32;8.30;;;2.55;;
30151;SDS011;16963;26.018;-80.216;2022-07-29T11:53:12;12.10;;;2.30;;
30151;SDS011;16963;26.018;-80.216;2022-07-29T11:55:43;9.75;;;2.20;;
30151;SDS011;16963;26.018;-80.216;2022-07-29T11:58:21;7.53;;;2.13;;
30151;SDS011;16963;26.018;-80.216;2022-07-29T12:00:53;12.30;;;2.60;;
30151;SDS011;16963;26.018;-80.216;2022-07-29T12:03:24;9.32;;;1.98;;
30151;SDS011;16963;26.018;-80.216;2022-07-29T12:06:02;8.77;;;1.85;;
30151;SDS011;16963;26.018;-80.216;2022-07-29T12:08:41;9.93;;;2.25;;
30151;SDS011;16963;26.018;-80.216;2022-07-29T12:11:23;9.52;;;2.20;;
30151;SDS011;16963;26.018;-80.216;2022-07-29T12:16:53;8.10;;;2.10;;
30151;SDS011;16963;26.018;-80.216;2022-07-29T12:19:26;6.95;;;2.20;;
30151;SDS011;16963;26.018;-80.216;2022-07-29T12:21:54;8.57;;;2.05;;
30151;SDS011;16963;26.018;-80.216;2022-07-29T12:24:41;5.28;;;1.67;;
30151;SDS011;16963;26.018;-80.216;2022-07-29T12:27:12;9.88;;;2.35;;
30151;SDS011;16963;26.018;-80.216;2022-07-29T12:29:54;6.60;;;1.85;;
30151;SDS011;16963;26.018;-80.216;2022-07-29T12:37:43;9.70;;;1.88;;
30151;SDS011;16963;26.018;-80.216;2022-07-29T12:40:16;6.90;;;1.50;;
30151;SDS011;16963;26.018;-80.216;2022-07-29T12:45:47;8.00;;;1.92;;
30151;SDS011;16963;26.018;-80.216;2022-07-29T12:48:43;7.38;;;1.73;;
30151;SDS011;16963;26.018;-80.216;2022-07-29T12:51:11;5.43;;;1.70;;
30151;SDS011;16963;26.018;-80.216;2022-07-29T12:54:01;7.90;;;1.75;;
30151;SDS011;16963;26.018;-80.216;2022-07-29T12:59:25;8.65;;;2.20;;
30151;SDS011;16963;26.018;-80.216;2022-07-29T13:01:56;9.43;;;1.80;;
30151;SDS011;16963;26.018;-80.216;2022-07-29T13:04:27;9.55;;;1.80;;
30151;SDS011;16963;26.018;-80.216;2022-07-29T13:07:01;7.30;;;1.50;;
30151;SDS011;16963;26.018;-80.216;2022-07-29T13:09:42;7.47;;;2.03;;
30151;SDS011;16963;26.018;-80.216;2022-07-29T13:12:16;7.75;;;1.95;;
30151;SDS011;16963;26.018;-80.216;2022-07-29T13:14:44;9.95;;;1.80;;
30151;SDS011;16963;26.018;-80.216;2022-07-29T13:17:18;8.98;;;1.80;;
30151;SDS011;16963;26.018;-80.216;2022-07-29T13:21:26;8.35;;;2.15;;
30151;SDS011;16963;26.018;-80.216;2022-07-29T13:23:56;11.55;;;2.72;;
30151;SDS011;16963;26.018;-80.216;2022-07-29T13:26:23;8.07;;;1.73;;
30151;SDS011;16963;26.018;-80.216;2022-07-29T13:28:54;8.03;;;2.63;;
30151;SDS011;16963;26.018;-80.216;2022-07-29T13:31:25;6.55;;;1.65;;
30151;SDS011;16963;26.018;-80.216;2022-07-29T13:33:56;6.47;;;2.10;;
30151;SDS011;16963;26.018;-80.216;2022-07-29T13:36:23;8.15;;;1.70;;
30151;SDS011;16963;26.018;-80.216;2022-07-29T13:38:54;7.35;;;1.80;;
30151;SDS011;16963;26.018;-80.216;2022-07-29T13:43:56;8.02;;;2.10;;
30151;SDS011;16963;26.018;-80.216;2022-07-29T13:46:23;10.20;;;2.03;;
30151;SDS011;16963;26.018;-80.216;2022-07-29T13:48:56;11.00;;;2.20;;
30151;SDS011;16963;26.018;-80.216;2022-07-29T13:51:24;9.10;;;1.60;;
30151;SDS011;16963;26.018;-80.216;2022-07-29T13:54:09;8.05;;;1.80;;
30151;SDS011;16963;26.018;-80.216;2022-07-29T13:56:36;8.43;;;2.70;;
30151;SDS011;16963;26.018;-80.216;2022-07-29T13:59:04;8.60;;;2.30;;
30151;SDS011;16963;26.018;-80.216;2022-07-29T14:01:37;9.65;;;2.30;;
30151;SDS011;16963;26.018;-80.216;2022-07-29T14:05:38;6.00;;;1.50;;
30151;SDS011;16963;26.018;-80.216;2022-07-29T14:08:06;9.75;;;1.98;;
30151;SDS011;16963;26.018;-80.216;2022-07-29T14:10:33;7.43;;;1.98;;
30151;SDS011;16963;26.018;-80.216;2022-07-29T14:13:03;6.60;;;1.50;;
30151;SDS011;16963;26.018;-80.216;2022-07-29T14:15:52;12.25;;;2.05;;
30151;SDS011;16963;26.018;-80.216;2022-07-29T14:18:22;8.10;;;1.92;;
30151;SDS011;16963;26.018;-80.216;2022-07-29T14:20:49;5.38;;;2.03;;
30151;SDS011;16963;26.018;-80.216;2022-07-29T14:23:17;7.78;;;1.52;;
30151;SDS011;16963;26.018;-80.216;2022-07-29T14:27:39;6.75;;;1.70;;
30151;SDS011;16963;26.018;-80.216;2022-07-29T14:30:09;6.07;;;1.80;;
30151;SDS011;16963;26.018;-80.216;2022-07-29T14:35:06;5.53;;;1.23;;
30151;SDS011;16963;26.018;-80.216;2022-07-29T14:37:36;8.00;;;1.60;;
30151;SDS011;16963;26.018;-80.216;2022-07-29T14:42:34;9.32;;;2.08;;
30151;SDS011;16963;26.018;-80.216;2022-07-29T14:45:06;7.65;;;1.80;;
30151;SDS011;16963;26.018;-80.216;2022-07-29T14:48:19;4.55;;;1.60;;
30151;SDS011;16963;26.018;-80.216;2022-07-29T14:50:47;10.73;;;1.80;;
30151;SDS011;16963;26.018;-80.216;2022-07-29T14:53:15;7.57;;;2.00;;
30151;SDS011;16963;26.018;-80.216;2022-07-29T14:55:44;7.95;;;1.83;;
30151;SDS011;16963;26.018;-80.216;2022-07-29T14:58:16;9.63;;;2.35;;
30151;SDS011;16963;26.018;-80.216;2022-07-29T15:00:46;9.13;;;1.90;;
30151;SDS011;16963;26.018;-80.216;2022-07-29T15:03:14;5.15;;;1.83;;
30151;SDS011;16963;26.018;-80.216;2022-07-29T15:05:52;9.70;;;1.65;;
30151;SDS011;16963;26.018;-80.216;2022-07-29T15:08:30;12.43;;;2.00;;
30151;SDS011;16963;26.018;-80.216;2022-07-29T15:10:57;8.07;;;1.55;;
30151;SDS011;16963;26.018;-80.216;2022-07-29T15:13:26;6.03;;;1.63;;
30151;SDS011;16963;26.018;-80.216;2022-07-29T15:15:56;8.60;;;1.65;;
30151;SDS011;16963;26.018;-80.216;2022-07-29T15:18:26;6.75;;;1.88;;
30151;SDS011;16963;26.018;-80.216;2022-07-29T15:20:54;8.40;;;1.70;;
30151;SDS011;16963;26.018;-80.216;2022-07-29T15:23:23;6.43;;;1.60;;
30151;SDS011;16963;26.018;-80.216;2022-07-29T15:25:52;7.07;;;1.52;;
30151;SDS011;16963;26.018;-80.216;2022-07-29T15:28:18;8.27;;;1.48;;
30151;SDS011;16963;26.018;-80.216;2022-07-29T15:30:56;7.22;;;1.77;;
30151;SDS011;16963;26.018;-80.216;2022-07-29T15:33:26;7.38;;;1.52;;
30151;SDS011;16963;26.018;-80.216;2022-07-29T15:38:24;6.57;;;1.50;;
30151;SDS011;16963;26.018;-80.216;2022-07-29T15:40:56;7.05;;;1.50;;
30151;SDS011;16963;26.018;-80.216;2022-07-29T15:43:24;5.47;;;1.67;;
30151;SDS011;16963;26.018;-80.216;2022-07-29T15:45:53;8.65;;;3.17;;
30151;SDS011;16963;26.018;-80.216;2022-07-29T15:48:56;5.75;;;1.30;;
30151;SDS011;16963;26.018;-80.216;2022-07-29T15:51:26;6.43;;;1.10;;
30151;SDS011;16963;26.018;-80.216;2022-07-29T15:53:57;8.40;;;1.40;;
30151;SDS011;16963;26.018;-80.216;2022-07-29T15:56:24;5.05;;;1.23;;
30151;SDS011;16963;26.018;-80.216;2022-07-29T15:58:57;6.50;;;1.60;;
30151;SDS011;16963;26.018;-80.216;2022-07-29T16:01:27;8.25;;;1.30;;
30151;SDS011;16963;26.018;-80.216;2022-07-29T16:03:57;7.32;;;1.10;;
30151;SDS011;16963;26.018;-80.216;2022-07-29T16:06:27;6.82;;;1.40;;
30151;SDS011;16963;26.018;-80.216;2022-07-29T16:11:24;6.43;;;1.30;;
30151;SDS011;16963;26.018;-80.216;2022-07-29T16:13:57;10.88;;;1.67;;
30151;SDS011;16963;26.018;-80.216;2022-07-29T16:16:26;5.68;;;1.25;;
30151;SDS011;16963;26.018;-80.216;2022-07-29T16:18:57;6.72;;;1.10;;
30151;SDS011;16963;26.018;-80.216;2022-07-29T16:21:26;6.53;;;1.50;;
30151;SDS011;16963;26.018;-80.216;2022-07-29T16:23:54;6.38;;;1.48;;
30151;SDS011;16963;26.018;-80.216;2022-07-29T16:26:23;4.75;;;1.30;;
30151;SDS011;16963;26.018;-80.216;2022-07-29T16:28:54;8.30;;;1.77;;
30151;SDS011;16963;26.018;-80.216;2022-07-29T16:33:50;4.85;;;1.35;;
30151;SDS011;16963;26.018;-80.216;2022-07-29T16:36:22;6.82;;;1.35;;
30151;SDS011;16963;26.018;-80.216;2022-07-29T16:38:49;7.22;;;1.80;;
30151;SDS011;16963;26.018;-80.216;2022-07-29T16:41:18;8.07;;;1.45;;
30151;SDS011;16963;26.018;-80.216;2022-07-29T16:43:46;7.63;;;1.65;;
30151;SDS011;16963;26.018;-80.216;2022-07-29T16:46:14;6.43;;;1.90;;
30151;SDS011;16963;26.018;-80.216;2022-07-29T16:48:54;5.25;;;1.42;;
30151;SDS011;16963;26.018;-80.216;2022-07-29T16:51:46;5.38;;;1.50;;
30151;SDS011;16963;26.018;-80.216;2022-07-29T16:54:22;8.93;;;1.77;;
30151;SDS011;16963;26.018;-80.216;2022-07-29T16:56:56;7.22;;;1.73;;
30151;SDS011;16963;26.018;-80.216;2022-07-29T16:59:28;8.30;;;1.63;;